Home > Products > Valid Products > MTR

000
SAUS44 KSHV 201057
MTRAQV
METAR KAQV 201056Z AUTO 00000KT 10SM CLR 11/09 A3004 RMK AO2 SLP172
T01060089





000
SAUS44 KSHV 201056
MTRBKB
METAR KBKB 201054Z AUTO 00000KT 9SM CLR 10/08 A3003 RMK AO2 SLP196
T01000083





000
SAUS44 KSHV 200957
MTRAQV
METAR KAQV 200956Z AUTO 00000KT 9SM CLR 11/09 A3003 RMK AO2 SLP169
T01060094





000
SAUS44 KSHV 200957
MTRAQV
METAR KAQV 200956Z AUTO 00000KT 9SM CLR 11/09 A3003 RMK AO2 SLP169
T01060094





000
SAUS44 KSHV 200955
MTRBKB
METAR KBKB 200954Z AUTO 00000KT 9SM CLR 11/09 A3003 RMK AO2 SLP195
T01060089





000
SAUS44 KSHV 200955
MTRBKB
METAR KBKB 200954Z AUTO 00000KT 9SM CLR 11/09 A3003 RMK AO2 SLP195
T01060089





000
SAUS44 KSHV 200857
MTRAQV
METAR KAQV 200856Z AUTO 00000KT 10SM CLR 11/09 A3004 RMK AO2 SLP170
T01060094 58004





000
SAUS44 KSHV 200855
MTRBKB
METAR KBKB 200854Z AUTO 00000KT 8SM CLR 11/09 A3003 RMK AO2 SLP195
T01110094 58004





000
SAUS44 KSHV 200757
MTRAQV
METAR KAQV 200756Z AUTO 00000KT 9SM CLR 11/10 A3005 RMK AO2 SLP173
T01060100





000
SAUS44 KSHV 200755
MTRBKB
METAR KBKB 200754Z AUTO 00000KT 9SM CLR 11/09 A3004 RMK AO2 SLP199
T01110094





000
SAUS44 KSHV 200755
MTRBKB
METAR KBKB 200754Z AUTO 00000KT 9SM CLR 11/09 A3004 RMK AO2 SLP199
T01110094





000
SAUS44 KSHV 200657
MTRAQV
METAR KAQV 200656Z AUTO 00000KT 9SM CLR 11/10 A3005 RMK AO2 SLP175
T01060100





000
SAUS44 KSHV 200655
MTRBKB
METAR KBKB 200654Z AUTO 00000KT 9SM CLR 12/10 A3005 RMK AO2 SLP201
T01170100





000
SAUS44 KSHV 200557
MTRAQV
METAR KAQV 200556Z AUTO 00000KT 10SM CLR 12/11 A3005 RMK AO2 SLP174
T01220106 10172 20117 402500117 58009





000
SAUS44 KSHV 200555
MTRBKB
METAR KBKB 200554Z AUTO 00000KT 10SM CLR 12/11 A3004 RMK AO2 SLP200
T01220106 10172 20122 402560122 58008





000
SAUS44 KSHV 200457
MTRAQV
METAR KAQV 200456Z AUTO 00000KT 10SM CLR 12/11 A3007 RMK AO2 SLP181
T01220111





000
SAUS44 KSHV 200455
MTRBKB
METAR KBKB 200454Z AUTO 00000KT 10SM CLR 13/11 A3006 RMK AO2 SLP206
T01280106





000
SAUS44 KSHV 200358
MTRAQV
METAR KAQV 200356Z AUTO 00000KT 10SM CLR 13/12 A3008 RMK AO2 SLP185
T01330117





000
SAUS44 KSHV 200355
MTRBKB
METAR KBKB 200354Z AUTO 00000KT 10SM CLR 14/12 A3007 RMK AO2 SLP208
T01390117





000
SAUS44 KSHV 200257
MTRAQV
METAR KAQV 200256Z AUTO 00000KT 10SM CLR 14/12 A3008 RMK AO2 SLP184
T01390122 51005





000
SAUS44 KSHV 200255
MTRBKB
METAR KBKB 200254Z AUTO 00000KT 10SM CLR 14/12 A3007 RMK AO2 SLP210
T01440117 53006





000
SAUS44 KSHV 200157
MTRAQV
METAR KAQV 200156Z AUTO 00000KT 10SM CLR 14/13 A3007 RMK AO2 SLP183
T01440128





000
SAUS44 KSHV 200155
MTRBKB
METAR KBKB 200154Z AUTO 00000KT 10SM CLR 15/12 A3006 RMK AO2 SLP208
T01500122





000
SAUS44 KSHV 200058
MTRAQV
METAR KAQV 200056Z AUTO 00000KT 10SM CLR 16/13 A3007 RMK AO2 SLP181
T01560133





000
SAUS44 KSHV 200055
MTRBKB
METAR KBKB 200054Z AUTO 00000KT 10SM CLR 16/12 A3005 RMK AO2 SLP205
T01560122





000
SAUS44 KSHV 192357
MTRAQV
METAR KAQV 192356Z AUTO 00000KT 10SM CLR 17/14 A3006 RMK AO2 SLP179
T01720144 10250 20172 53001





000
SAUS44 KSHV 192357
MTRAQV
METAR KAQV 192356Z AUTO 00000KT 10SM CLR 17/14 A3006 RMK AO2 SLP179
T01720144 10250 20172 53001





000
SAUS44 KSHV 192355
MTRBKB
METAR KBKB 192354Z AUTO 00000KT 10SM CLR 17/13 A3005 RMK AO2 SLP203
T01720128 10256 20172 53002





000
SAUS44 KSHV 192355
MTRBKB
METAR KBKB 192354Z AUTO 00000KT 10SM CLR 17/13 A3005 RMK AO2 SLP203
T01720128 10256 20172 53002





000
SAUS44 KSHV 192257
MTRAQV
METAR KAQV 192256Z AUTO 00000KT 10SM CLR 22/13 A3006 RMK AO2 SLP176
T02220133





000
SAUS44 KSHV 192257
MTRAQV
METAR KAQV 192256Z AUTO 00000KT 10SM CLR 22/13 A3006 RMK AO2 SLP176
T02220133





000
SAUS44 KSHV 192255
MTRBKB
METAR KBKB 192254Z AUTO 00000KT 10SM CLR 21/12 A3004 RMK AO2 SLP200
T02110122





000
SAUS44 KSHV 192255
MTRBKB
METAR KBKB 192254Z AUTO 00000KT 10SM CLR 21/12 A3004 RMK AO2 SLP200
T02110122





000
SAUS44 KSHV 192157
MTRAQV
METAR KAQV 192156Z AUTO 03003KT 10SM CLR 24/11 A3006 RMK AO2 SLP176
T02390111





000
SAUS44 KSHV 192155
MTRBKB
METAR KBKB 192154Z AUTO VRB03KT 10SM CLR 24/11 A3004 RMK AO2 SLP199
T02440111





000
SAUS44 KSHV 192057
MTRAQV
METAR KAQV 192056Z AUTO 02006KT 10SM CLR 24/12 A3006 RMK AO2 SLP177
T02440117 56022





000
SAUS44 KSHV 192055
MTRBKB
METAR KBKB 192054Z AUTO VRB04KT 10SM CLR 24/11 A3004 RMK AO2 SLP200
T02440106 56020





000
SAUS44 KSHV 191957
MTRAQV
METAR KAQV 191956Z AUTO VRB05KT 10SM CLR 25/12 A3007 RMK AO2 SLP181
T02500122





000
SAUS44 KSHV 191955
MTRBKB
METAR KBKB 191954Z AUTO VRB03KT 10SM CLR 25/12 A3005 RMK AO2 SLP203
T02500117





000
SAUS44 KSHV 191858
MTRAQV
METAR KAQV 191856Z AUTO VRB04KT 10SM CLR 23/12 A3009 RMK AO2 SLP188
T02330117





000
SAUS44 KSHV 191855
MTRBKB
METAR KBKB 191854Z AUTO VRB04KT 10SM CLR 24/12 A3007 RMK AO2 SLP211
T02440117





000
SAUS44 KSHV 191757
MTRAQV
METAR KAQV 191756Z AUTO VRB05KT 10SM CLR 23/12 A3012 RMK AO2 SLP199
T02280117 10228 20128 58011





000
SAUS44 KSHV 191755
MTRBKB
METAR KBKB 191754Z AUTO VRB05KT 10SM CLR 23/12 A3010 RMK AO2 SLP220
T02330117 10233 20128 58012





000
SAUS44 KSHV 191658
MTRAQV
METAR KAQV 191656Z AUTO 13005KT 10SM CLR 21/11 A3014 RMK AO2 SLP206
T02110111





000
SAUS44 KSHV 191655
MTRBKB
METAR KBKB 191654Z AUTO VRB04KT 10SM CLR 22/11 A3013 RMK AO2 SLP230
T02220111





000
SAUS44 KSHV 191557
MTRAQV
METAR KAQV 191556Z AUTO 05007KT 020V100 10SM CLR 19/11 A3015 RMK AO2
SLP208 T01940111





000
SAUS44 KSHV 191555
MTRBKB
METAR KBKB 191554Z AUTO VRB04KT 10SM CLR 21/11 A3013 RMK AO2 SLP231
T02060111





000
SAUS44 KSHV 191458
MTRAQV
METAR KAQV 191456Z AUTO VRB06KT 10SM CLR 18/11 A3016 RMK AO2 SLP210
T01780111 51015





000
SAUS44 KSHV 191455
MTRBKB
METAR KBKB 191454Z AUTO VRB06KT 10SM CLR 18/11 A3014 RMK AO2 SLP232
T01830111 51014





000
SAUS44 KSHV 191358
MTRAQV
METAR KAQV 191356Z AUTO VRB05KT 10SM CLR 16/11 A3014 RMK AO2 SLP205
T01560111





000
SAUS44 KSHV 191355
MTRBKB
METAR KBKB 191354Z AUTO VRB04KT 10SM CLR 16/11 A3013 RMK AO2 SLP230
T01560111





000
SAUS44 KSHV 191257
MTRAQV
METAR KAQV 191256Z AUTO 05004KT 10SM CLR 13/11 A3013 RMK AO2 SLP200
T01280106





000
SAUS44 KSHV 191255
MTRBKB
METAR KBKB 191254Z AUTO VRB03KT 10SM CLR 13/11 A3011 RMK AO2 SLP223
T01330106





000
SAUS44 KSHV 191157
MTRAQV
METAR KAQV 191156Z AUTO 06003KT 10SM CLR 13/11 A3011 RMK AO2 SLP194
T01330106 10167 20128 53010





000
SAUS44 KSHV 191155
MTRBKB
METAR KBKB 191154Z AUTO 00000KT 10SM CLR 13/11 A3009 RMK AO2 SLP218
T01280106 10172 20128 52009





000
SAUS44 KSHV 191057
MTRAQV
METAR KAQV 191056Z AUTO 04003KT 10SM CLR 13/11 A3010 RMK AO2 SLP191
T01330111





000
SAUS44 KSHV 191055
MTRBKB
METAR KBKB 191054Z AUTO 00000KT 10SM CLR 13/11 A3008 RMK AO2 SLP215
T01330106





000
SAUS44 KSHV 191000 COR
MTRAQV
METAR KAQV 190956Z AUTO VRB04KT 10SM CLR 14/11 A3009 RMK AO2 SLP186
T01390111





000
SAUS44 KSHV 190959 COR
MTRAQV
METAR KAQV 190956Z AUTO VRB04KT 10SM CLR 14/11 A3009 RMK AO2 SLP186
T01390111





000
SAUS44 KSHV 190959 COR
MTRAQV
METAR KAQV 190956Z AUTO VRB04KT 10SM CLR 14/11 A3009 RMK AO2 SLP186
T01390111





000
SAUS44 KSHV 190958 COR
MTRAQV
METAR KAQV 190956Z AUTO VRB04KT 10SM CLR 14/11 A3009 RMK AO2 SLP186
T01390111





000
SAUS44 KSHV 190958 COR
MTRAQV
METAR KAQV 190956Z AUTO VRB04KT 10SM CLR 14/11 A3009 RMK AO2 SLP186
T01390111





000
SAUS44 KSHV 190957
MTRAQV
METAR KAQV 190956Z AUTO VRB04KT 10SM CLR 14/11 A3009 RMK AO2 SLP186
T01390111





000
SAUS44 KSHV 190957
MTRAQV
METAR KAQV 190956Z AUTO VRB04KT 10SM CLR 14/11 A3009 RMK AO2 SLP186
T01390111





000
SAUS44 KSHV 190955
MTRBKB
METAR KBKB 190954Z AUTO 00000KT 10SM CLR 14/11 A3007 RMK AO2 SLP210
T01390111





000
SAUS44 KSHV 190955
MTRBKB
METAR KBKB 190954Z AUTO 00000KT 10SM CLR 14/11 A3007 RMK AO2 SLP210
T01390111





000
SAUS44 KSHV 190858
MTRAQV
METAR KAQV 190856Z AUTO VRB03KT 10SM CLR 14/12 A3008 RMK AO2 SLP183
T01440117 58003





000
SAUS44 KSHV 190855
MTRBKB
METAR KBKB 190854Z AUTO 03003KT 10SM CLR 14/12 A3007 RMK AO2 SLP207
T01440117 58001





000
SAUS44 KSHV 190757
MTRAQV
METAR KAQV 190756Z AUTO VRB03KT 10SM CLR 15/12 A3008 RMK AO2 SLP184
T01500117





000
SAUS44 KSHV 190755
MTRBKB
METAR KBKB 190754Z AUTO 00000KT 10SM CLR 15/12 A3007 RMK AO2 SLP210
T01500117





000
SAUS44 KSHV 190658
MTRAQV
METAR KAQV 190656Z AUTO 05003KT 10SM CLR 16/12 A3009 RMK AO2 SLP188
T01610122





000
SAUS44 KSHV 190655
MTRBKB
METAR KBKB 190654Z AUTO VRB04KT 10SM CLR 16/12 A3008 RMK AO2 SLP211
T01610117





000
SAUS44 KSHV 190557
MTRAQV
METAR KAQV 190556Z AUTO 06004KT 10SM CLR 17/12 A3009 RMK AO2 SLP187
T01720122 10233 20172 403000161 51003





000
SAUS44 KSHV 190555
MTRBKB
METAR KBKB 190554Z AUTO 03004KT 10SM CLR 17/12 A3007 RMK AO2 SLP209
T01670122 10239 20167 403000167 50003





000
SAUS44 KSHV 190457
MTRAQV
METAR KAQV 190456Z AUTO VRB04KT 10SM CLR 18/13 A3009 RMK AO2 SLP186
T01780133





000
SAUS44 KSHV 190457
MTRAQV
METAR KAQV 190456Z AUTO VRB04KT 10SM CLR 18/13 A3009 RMK AO2 SLP186
T01780133





000
SAUS44 KSHV 190455
MTRBKB
METAR KBKB 190454Z AUTO 03003KT 10SM CLR 18/13 A3008 RMK AO2 SLP211
T01780128





000
SAUS44 KSHV 190455
MTRBKB
METAR KBKB 190454Z AUTO 03003KT 10SM CLR 18/13 A3008 RMK AO2 SLP211
T01780128





000
SAUS44 KSHV 190357
MTRAQV
METAR KAQV 190356Z AUTO 00000KT 10SM CLR 19/14 A3009 RMK AO2 SLP186
T01890139





000
SAUS44 KSHV 190357
MTRAQV
METAR KAQV 190356Z AUTO 00000KT 10SM CLR 19/14 A3009 RMK AO2 SLP186
T01890139





000
SAUS44 KSHV 190355
MTRBKB
METAR KBKB 190354Z AUTO VRB03KT 10SM CLR 19/14 A3007 RMK AO2 SLP210
T01890139





000
SAUS44 KSHV 190355
MTRBKB
METAR KBKB 190354Z AUTO VRB03KT 10SM CLR 19/14 A3007 RMK AO2 SLP210
T01890139





000
SAUS44 KSHV 190257
MTRAQV
METAR KAQV 190256Z AUTO 04004KT 10SM CLR 21/14 A3008 RMK AO2 SLP183
T02060144 51020





000
SAUS44 KSHV 190255
MTRBKB
METAR KBKB 190254Z AUTO VRB03KT 10SM CLR 20/15 A3006 RMK AO2 SLP205
T02000150 51021





000
SAUS44 KSHV 190159
MTRAQV
METAR KAQV 190156Z AUTO 04004KT 10SM CLR 21/16 A3006 RMK AO2 SLP177
T02110156





000
SAUS44 KSHV 190155
MTRBKB
METAR KBKB 190154Z AUTO VRB03KT 10SM CLR 21/16 A3004 RMK AO2 SLP200
T02110161





000
SAUS44 KSHV 190058
MTRAQV
METAR KAQV 190056Z AUTO 03004KT 10SM CLR 22/18 A3005 RMK AO2 SLP172
T02170178





000
SAUS44 KSHV 190055
MTRBKB
METAR KBKB 190054Z AUTO VRB04KT 10SM CLR 22/17 A3002 RMK AO2 SLP193
T02220172





000
SAUS44 KSHV 182357
MTRAQV
METAR KAQV 182356Z AUTO 03003KT 10SM CLR 23/18 A3002 RMK AO2 SLP164
T02330178 10300 20233 53013





000
SAUS44 KSHV 182355
MTRBKB
METAR KBKB 182354Z AUTO VRB05KT 10SM CLR 24/18 A3000 RMK AO2 SLP185
T02390183 10300 20239 53012





000
SAUS44 KSHV 182257
MTRAQV
METAR KAQV 182256Z AUTO 02005KT 10SM CLR 26/18 A3000 RMK AO2 SLP156
T02560178





000
SAUS44 KSHV 182255
MTRBKB
METAR KBKB 182254Z AUTO VRB03KT 10SM CLR 26/19 A2997 RMK AO2 SLP176
T02610189





000
SAUS44 KSHV 182157
MTRAQV
METAR KAQV 182156Z AUTO VRB06KT 10SM FEW036 FEW060 28/18 A2999 RMK
AO2 SLP153 T02780183





000
SAUS44 KSHV 182155
MTRBKB
METAR KBKB 182154Z AUTO 00000KT 10SM CLR 29/18 A2996 RMK AO2 SLP173
T02890178





000
SAUS44 KSHV 182155
MTRBKB
METAR KBKB 182154Z AUTO 00000KT 10SM CLR 29/18 A2996 RMK AO2 SLP173
T02890178





000
SAUS44 KSHV 182057
MTRAQV
METAR KAQV 182056Z AUTO 03006KT 10SM FEW036 SCT045 SCT060 29/19
A2998 RMK AO2 SLP150 T02890189 56014





000
SAUS44 KSHV 182055
MTRBKB
METAR KBKB 182054Z AUTO 00000KT 10SM SCT042 SCT055 28/18 A2996 RMK
AO2 SLP171 T02780178 56017





000
SAUS44 KSHV 181957
MTRAQV
METAR KAQV 181956Z AUTO 00000KT 10SM FEW038 FEW048 BKN060 28/19
A2999 RMK AO2 SLP151 T02780189





000
SAUS44 KSHV 181957
MTRAQV
METAR KAQV 181956Z AUTO 00000KT 10SM FEW038 FEW048 BKN060 28/19
A2999 RMK AO2 SLP151 T02780189





000
SAUS44 KSHV 181955
MTRBKB
METAR KBKB 181954Z AUTO VRB03KT 10SM FEW039 SCT047 BKN055 28/18
A2997 RMK AO2 SLP173 T02780178





000
SAUS44 KSHV 181955
MTRBKB
METAR KBKB 181954Z AUTO VRB03KT 10SM FEW039 SCT047 BKN055 28/18
A2997 RMK AO2 SLP173 T02780178





000
SAUS44 KSHV 181858
MTRAQV
METAR KAQV 181856Z AUTO 00000KT 10SM SCT033 SCT040 28/19 A3000 RMK
AO2 SLP156 T02830189





000
SAUS44 KSHV 181855
MTRBKB
METAR KBKB 181854Z AUTO 00000KT 10SM CLR 29/18 A2998 RMK AO2 SLP179
T02890178





000
SAUS44 KSHV 181835
MTRAQV
SPECI KAQV 181833Z AUTO 00000KT 10SM SCT031 BKN039 27/19 A3001 RMK
AO2 T02670189





000
SAUS44 KSHV 181827
MTRAQV
SPECI KAQV 181826Z AUTO VRB04KT 10SM BKN029 28/18 A3001 RMK AO2
T02780183





000
SAUS44 KSHV 181757
MTRAQV
METAR KAQV 181756Z AUTO VRB03KT 10SM FEW025 28/19 A3002 RMK AO2
SLP164 T02780194 10283 20161 58007





000
SAUS44 KSHV 181755
MTRBKB
METAR KBKB 181754Z AUTO VRB03KT 10SM SCT029 SCT036 27/19 A3001 RMK
AO2 SLP189 T02670189 10283 20167 58006





000
SAUS44 KSHV 181709
MTRBKB
SPECI KBKB 181707Z AUTO 00000KT 10SM FEW021 SCT029 BKN042 26/19
A3002 RMK AO2 T02560194





000
SAUS44 KSHV 181657
MTRAQV
METAR KAQV 181656Z AUTO 01004KT 10SM FEW020 BKN042 26/19 A3004 RMK
AO2 SLP171 T02610189





000
SAUS44 KSHV 181657
MTRAQV
METAR KAQV 181656Z AUTO 01004KT 10SM FEW020 BKN042 26/19 A3004 RMK
AO2 SLP171 T02610189





000
SAUS44 KSHV 181655
MTRBKB
METAR KBKB 181654Z AUTO VRB03KT 10SM BKN021 BKN029 OVC042 25/19
A3003 RMK AO2 SLP194 T02500194





000
SAUS44 KSHV 181655
MTRBKB
METAR KBKB 181654Z AUTO VRB03KT 10SM BKN021 BKN029 OVC042 25/19
A3003 RMK AO2 SLP194 T02500194





000
SAUS44 KSHV 181635
MTRBKB
SPECI KBKB 181633Z AUTO VRB03KT 10SM BKN019 BKN029 26/19 A3003 RMK
AO2 T02610194





000
SAUS44 KSHV 181627
MTRBKB
SPECI KBKB 181625Z AUTO VRB03KT 10SM SCT018 27/19 A3003 RMK AO2
T02670194





000
SAUS44 KSHV 181627
MTRBKB
SPECI KBKB 181625Z AUTO VRB03KT 10SM SCT018 27/19 A3003 RMK AO2
T02670194





000
SAUS44 KSHV 181622
MTRAQV
SPECI KAQV 181620Z AUTO 31005KT 10SM SCT017 25/19 A3005 RMK AO2
T02500189





000
SAUS44 KSHV 181609
MTRAQV
SPECI KAQV 181608Z AUTO 04004KT 10SM BKN016 26/19 A3004 RMK AO2
T02560189





000
SAUS44 KSHV 181609
MTRAQV
SPECI KAQV 181608Z AUTO 04004KT 10SM BKN016 26/19 A3004 RMK AO2
T02560189





000
SAUS44 KSHV 181557
MTRAQV
METAR KAQV 181556Z AUTO 32004KT 10SM BKN014 24/19 A3004 RMK AO2
SLP171 T02440189





000
SAUS44 KSHV 181557
MTRAQV
METAR KAQV 181556Z AUTO 32004KT 10SM BKN014 24/19 A3004 RMK AO2
SLP171 T02440189





000
SAUS44 KSHV 181555
MTRBKB
METAR KBKB 181554Z AUTO 00000KT 10SM BKN019 BKN040 25/19 A3003 RMK
AO2 SLP195 T02500189





000
SAUS44 KSHV 181555
MTRBKB
METAR KBKB 181554Z AUTO 00000KT 10SM BKN019 BKN040 25/19 A3003 RMK
AO2 SLP195 T02500189





000
SAUS44 KSHV 181539
MTRAQV
SPECI KAQV 181538Z AUTO VRB03KT 10SM BKN013 24/19 A3004 RMK AO2
T02440194





000
SAUS44 KSHV 181457
MTRAQV
METAR KAQV 181456Z AUTO VRB06KT 10SM SCT012 BKN041 23/19 A3005 RMK
AO2 SLP173 T02330194 52015





000
SAUS44 KSHV 181457
MTRAQV
METAR KAQV 181456Z AUTO VRB06KT 10SM SCT012 BKN041 23/19 A3005 RMK
AO2 SLP173 T02330194 52015





000
SAUS44 KSHV 181456
MTRBKB
METAR KBKB 181454Z AUTO VRB04KT 10SM BKN041 BKN050 24/19 A3003 RMK
AO2 SLP195 T02390194 51014





000
SAUS44 KSHV 181456
MTRBKB
METAR KBKB 181454Z AUTO VRB04KT 10SM BKN041 BKN050 24/19 A3003 RMK
AO2 SLP195 T02390194 51014





000
SAUS44 KSHV 181357
MTRAQV
METAR KAQV 181356Z AUTO VRB03KT 10SM FEW042 22/19 A3003 RMK AO2
SLP168 T02170194





000
SAUS44 KSHV 181355
MTRBKB
METAR KBKB 181354Z AUTO 00000KT 10SM BKN044 21/19 A3002 RMK AO2
SLP193 T02110189





000
SAUS44 KSHV 181258
MTRAQV
METAR KAQV 181256Z AUTO 00000KT 7SM SCT038 17/16 A3002 RMK AO2
SLP162 T01670161





000
SAUS44 KSHV 181255
MTRBKB
METAR KBKB 181254Z AUTO 00000KT 6SM BR OVC041 18/17 A3001 RMK AO2
SLP189 T01830167





000
SAUS44 KSHV 181201 COR
MTRAQV
METAR KAQV 181156Z AUTO 00000KT 7SM FEW040 16/15 A3000 RMK AO2
SLP158 T01610150 10194 20161 53011





000
SAUS44 KSHV 181155
MTRBKB
METAR KBKB 181154Z AUTO 00000KT 8SM BKN037 17/16 A2999 RMK AO2
SLP183 T01720156 10178 20167 53010





000
SAUS44 KSHV 181058
MTRAQV
METAR KAQV 181056Z AUTO 00000KT 6SM BR CLR 17/16 A2999 RMK AO2
SLP153 T01670156





000
SAUS44 KSHV 181058
MTRAQV
METAR KAQV 181056Z AUTO 00000KT 6SM BR CLR 17/16 A2999 RMK AO2
SLP153 T01670156





000
SAUS44 KSHV 181055
MTRBKB
METAR KBKB 181054Z AUTO 00000KT 7SM BKN040 17/16 A2998 RMK AO2
SLP179 T01720156





000
SAUS44 KSHV 181055
MTRBKB
METAR KBKB 181054Z AUTO 00000KT 7SM BKN040 17/16 A2998 RMK AO2
SLP179 T01720156





000
SAUS44 KSHV 180957
MTRAQV
METAR KAQV 180956Z AUTO 00000KT 6SM BR CLR 17/16 A2998 RMK AO2
SLP148 T01670156





000
SAUS44 KSHV 180955
MTRBKB
METAR KBKB 180954Z AUTO 00000KT 6SM BR FEW039 17/16 A2997 RMK AO2
SLP174 T01720156





000
SAUS44 KSHV 180955
MTRBKB
METAR KBKB 180954Z AUTO 00000KT 6SM BR FEW039 17/16 A2997 RMK AO2
SLP174 T01720156





000
SAUS44 KSHV 180858
MTRAQV
METAR KAQV 180856Z AUTO 00000KT 5SM BR CLR 17/16 A2997 RMK AO2
SLP145 T01720161 51001





000
SAUS44 KSHV 180855
MTRBKB
METAR KBKB 180854Z AUTO 00000KT 8SM BKN039 17/16 A2996 RMK AO2
SLP171 T01720156 51000





000
SAUS44 KSHV 180757
MTRAQV
METAR KAQV 180756Z AUTO 00000KT 6SM BR CLR 18/17 A2997 RMK AO2
SLP145 T01780167





000
SAUS44 KSHV 180756
MTRBKB
METAR KBKB 180754Z AUTO 00000KT 4SM BR CLR 17/16 A2996 RMK AO2
SLP171 T01720156





000
SAUS44 KSHV 180756
MTRBKB
METAR KBKB 180754Z AUTO 00000KT 4SM BR CLR 17/16 A2996 RMK AO2
SLP171 T01720156





000
SAUS44 KSHV 180742
MTRBKB
SPECI KBKB 180740Z AUTO 00000KT 2SM BR CLR 17/16 A2996 RMK AO2 VIS
3/4V4 T01720156





000
SAUS44 KSHV 180733
MTRBKB
SPECI KBKB 180732Z AUTO 00000KT 1/2SM FG CLR 17/16 A2996 RMK AO2
T01720156





000
SAUS44 KSHV 180723
MTRBKB
SPECI KBKB 180722Z AUTO 00000KT 1 3/4SM BR CLR 18/16 A2996 RMK AO2
T01780161





000
SAUS44 KSHV 180657
MTRAQV
METAR KAQV 180656Z AUTO 00000KT 9SM CLR 19/17 A2997 RMK AO2 SLP147
T01890172





000
SAUS44 KSHV 180655
MTRBKB
METAR KBKB 180654Z AUTO 00000KT 3SM BR FEW040 18/16 A2996 RMK AO2
SLP172 T01780161





000
SAUS44 KSHV 180558
MTRAQV
METAR KAQV 180556Z AUTO 00000KT 10SM CLR 19/18 A2997 RMK AO2 SLP145
T01940178 10217 20178 402890133 51003





000
SAUS44 KSHV 180555
MTRBKB
METAR KBKB 180554Z AUTO 00000KT 6SM BR BKN041 18/17 A2996 RMK AO2
SLP171 T01830167 10222 20183 402940139 51003





000
SAUS44 KSHV 180501 COR
MTRAQV
METAR KAQV 180456Z AUTO 00000KT 9SM BKN040 18/17 A2996 RMK AO2
SLP144 T01830172





000
SAUS44 KSHV 180455
MTRBKB
METAR KBKB 180454Z AUTO 00000KT 4SM BR FEW041 18/17 A2996 RMK AO2
SLP171 T01830167





000
SAUS44 KSHV 180455
MTRBKB
METAR KBKB 180454Z AUTO 00000KT 4SM BR FEW041 18/17 A2996 RMK AO2
SLP171 T01830167





000
SAUS44 KSHV 180357
MTRAQV
METAR KAQV 180356Z AUTO 00000KT 9SM FEW040 18/17 A2996 RMK AO2
SLP143 T01830172





000
SAUS44 KSHV 180355
MTRBKB
METAR KBKB 180354Z AUTO 00000KT 7SM SCT041 18/17 A2996 RMK AO2
SLP171 T01830167





000
SAUS44 KSHV 180258
MTRAQV
METAR KAQV 180256Z AUTO 00000KT 10SM SCT042 18/17 A2996 RMK AO2
SLP143 T01780172 52012





000
SAUS44 KSHV 180255
MTRBKB
METAR KBKB 180254Z AUTO 00000KT 10SM SCT042 19/17 A2995 RMK AO2
SLP168 T01940172 51015





000
SAUS44 KSHV 180157
MTRAQV
METAR KAQV 180156Z AUTO 00000KT 10SM FEW041 19/18 A2995 RMK AO2
SLP138 T01890178





000
SAUS44 KSHV 180155
MTRBKB
METAR KBKB 180154Z AUTO 00000KT 10SM CLR 19/17 A2994 RMK AO2 SLP164
T01940172





000
SAUS44 KSHV 180057
MTRAQV
METAR KAQV 180056Z AUTO 00000KT 10SM CLR 20/19 A2994 RMK AO2 SLP136
T02000189





000
SAUS44 KSHV 180055
MTRBKB
METAR KBKB 180054Z AUTO 00000KT 10SM FEW044 20/18 A2993 RMK AO2
SLP162 T02000178





000
SAUS44 KSHV 172357
MTRAQV
METAR KAQV 172356Z AUTO 00000KT 10SM CLR 22/19 A2992 RMK AO2 SLP131
T02170194 10289 20217 53003





000
SAUS44 KSHV 172357
MTRAQV
METAR KAQV 172356Z AUTO 00000KT 10SM CLR 22/19 A2992 RMK AO2 SLP131
T02170194 10289 20217 53003





000
SAUS44 KSHV 172355
MTRBKB
METAR KBKB 172354Z AUTO 00000KT 10SM CLR 22/18 A2991 RMK AO2 SLP154
T02220183 10294 20222 53001





000
SAUS44 KSHV 172355
MTRBKB
METAR KBKB 172354Z AUTO 00000KT 10SM CLR 22/18 A2991 RMK AO2 SLP154
T02220183 10294 20222 53001





000
SAUS44 KSHV 172259
MTRAQV
METAR KAQV 172256Z AUTO 00000KT 10SM CLR 27/18 A2992 RMK AO2 SLP129
T02670178





000
SAUS44 KSHV 172259
MTRAQV
METAR KAQV 172256Z AUTO 00000KT 10SM CLR 27/18 A2992 RMK AO2 SLP129
T02670178





000
SAUS44 KSHV 172255
MTRBKB
METAR KBKB 172254Z AUTO 00000KT 10SM CLR 26/17 A2990 RMK AO2 SLP152
T02610172





000
SAUS44 KSHV 172255
MTRBKB
METAR KBKB 172254Z AUTO 00000KT 10SM CLR 26/17 A2990 RMK AO2 SLP152
T02610172





000
SAUS44 KSHV 172157
MTRAQV
METAR KAQV 172156Z AUTO 19003KT 10SM CLR 28/17 A2991 RMK AO2 SLP127
T02780172





000
SAUS44 KSHV 172157
MTRAQV
METAR KAQV 172156Z AUTO 19003KT 10SM CLR 28/17 A2991 RMK AO2 SLP127
T02780172





000
SAUS44 KSHV 172155
MTRBKB
METAR KBKB 172154Z AUTO VRB03KT 10SM CLR 29/16 A2990 RMK AO2 SLP150
T02890161





000
SAUS44 KSHV 172155
MTRBKB
METAR KBKB 172154Z AUTO VRB03KT 10SM CLR 29/16 A2990 RMK AO2 SLP150
T02890161





000
SAUS44 KSHV 172058
MTRAQV
METAR KAQV 172056Z AUTO VRB05KT 10SM FEW041 28/17 A2992 RMK AO2
SLP127 T02830172 56017





000
SAUS44 KSHV 172058
MTRAQV
METAR KAQV 172056Z AUTO VRB05KT 10SM FEW041 28/17 A2992 RMK AO2
SLP127 T02830172 56017





000
SAUS44 KSHV 172055
MTRBKB
METAR KBKB 172054Z AUTO VRB05KT 10SM CLR 29/16 A2990 RMK AO2 SLP152
T02940161 56019





000
SAUS44 KSHV 171957
MTRAQV
METAR KAQV 171956Z AUTO VRB05KT 10SM CLR 29/16 A2993 RMK AO2 SLP131
T02890161





000
SAUS44 KSHV 171957
MTRAQV
METAR KAQV 171956Z AUTO VRB05KT 10SM CLR 29/16 A2993 RMK AO2 SLP131
T02890161





000
SAUS44 KSHV 171955
MTRBKB
METAR KBKB 171954Z AUTO VRB05KT 10SM CLR 29/17 A2992 RMK AO2 SLP157
T02940167





000
SAUS44 KSHV 171857
MTRAQV
METAR KAQV 171856Z AUTO VRB05KT 10SM CLR 28/17 A2994 RMK AO2 SLP136
T02780167





000
SAUS44 KSHV 171855
MTRBKB
METAR KBKB 171854Z AUTO VRB06KT 10SM CLR 29/17 A2993 RMK AO2 SLP160
T02890167





000
SAUS44 KSHV 171757
MTRAQV
METAR KAQV 171756Z AUTO 19010KT 160V230 10SM CLR 27/17 A2997 RMK AO2
SLP144 T02720167 10272 20133 58009





000
SAUS44 KSHV 171756
MTRBKB
METAR KBKB 171754Z AUTO VRB03KT 10SM BKN037 28/17 A2996 RMK AO2
SLP172 T02780167 10289 20139 58007





000
SAUS44 KSHV 171658
MTRAQV
METAR KAQV 171656Z AUTO VRB06KT 10SM CLR 27/16 A2999 RMK AO2 SLP152
T02670161





000
SAUS44 KSHV 171656
MTRBKB
METAR KBKB 171654Z AUTO VRB04KT 10SM SCT032 27/17 A2998 RMK AO2
SLP177 T02720172





000
SAUS44 KSHV 171557
MTRAQV
METAR KAQV 171556Z AUTO 25010G16KT 210V270 10SM FEW023 25/18 A3000
RMK AO2 SLP155 T02500178





000
SAUS44 KSHV 171557
MTRAQV
METAR KAQV 171556Z AUTO 25010G16KT 210V270 10SM FEW023 25/18 A3000
RMK AO2 SLP155 T02500178





000
SAUS44 KSHV 171555
MTRBKB
METAR KBKB 171554Z AUTO 24006KT 10SM FEW026 26/18 A2999 RMK AO2
SLP180 T02610178





000
SAUS44 KSHV 171555
MTRBKB
METAR KBKB 171554Z AUTO 24006KT 10SM FEW026 26/18 A2999 RMK AO2
SLP180 T02610178





000
SAUS44 KSHV 171457
MTRAQV
METAR KAQV 171456Z AUTO 24007KT 210V270 10SM CLR 23/18 A2999 RMK AO2
SLP154 T02330178 51017





000
SAUS44 KSHV 171455
MTRBKB
METAR KBKB 171454Z AUTO VRB03KT 10SM CLR 23/18 A2998 RMK AO2 SLP179
T02330178 51016





000
SAUS44 KSHV 171358
MTRAQV
METAR KAQV 171356Z AUTO VRB04KT 10SM CLR 20/17 A2998 RMK AO2 SLP150
T02000172





000
SAUS44 KSHV 171355
MTRBKB
METAR KBKB 171354Z AUTO 19003KT 10SM CLR 19/17 A2998 RMK AO2 SLP179
T01940167





000
SAUS44 KSHV 171257
MTRAQV
METAR KAQV 171256Z AUTO 00000KT 7SM CLR 14/13 A2996 RMK AO2 SLP145
T01390128





000
SAUS44 KSHV 171255
MTRBKB
METAR KBKB 171254Z AUTO 00000KT 5SM BR CLR 14/13 A2996 RMK AO2
SLP174 T01390128





000
SAUS44 KSHV 171200
MTRAQV
METAR KAQV 171156Z AUTO 00000KT 7SM CLR 14/13 A2994 RMK AO2 SLP137
T01390128 10172 20139 53015





000
SAUS44 KSHV 171200
MTRAQV
METAR KAQV 171156Z AUTO 00000KT 7SM CLR 14/13 A2994 RMK AO2 SLP137
T01390128 10172 20139 53015





000
SAUS44 KSHV 171156
MTRBKB
METAR KBKB 171154Z AUTO 00000KT 7SM CLR 14/13 A2994 RMK AO2 SLP164
T01390128 10189 20139 51015 $





000
SAUS44 KSHV 171156
MTRBKB
METAR KBKB 171154Z AUTO 00000KT 7SM CLR 14/13 A2994 RMK AO2 SLP164
T01390128 10189 20139 51015 $





    US Dept of Commerce
    National Oceanic and Atmospheric Administration
    National Weather Service
    1325 East West Highway
    Silver Spring, MD 20910
    Page Author: NWS Internet Services Team
Disclaimer
Information Quality
Credits
Glossary
Privacy Policy
Freedom of Information Act (FOIA)
About Us
Career Opportunities